Terminal Aerodrome Forecast
Issued by NWS

Home | Current Version | Previous Version | Text Only | Print | Product List | Glossary On
Versions: 1 2 3 4 5 6 7 8 9 10 11 12 13 14 15 16 17 18 19 20 21 22 23 24 25 26
289
FTUS43 KEAX 160253 AAA
TAFMKC
TAF AMD
KMKC 160253Z 1603/1624 08008KT 2SM BR VCSH OVC003
     FM160700 09010KT 2SM -RA BR OVC003
      TEMPO 1608/1612 1/2SM RA FG OVC002
     FM162000 18007KT 4SM BR VCSH BKN005=

USA.gov is the U.S. government's official web portal to all federal, state and local government web resources and services.